Time;durP1;ratioP1;P1;durP2;ratioP2;P2;SDS_P1;SDS_P2;PMS_P1;PMS_P2;Temp;Humidity;BMP_temperature;BMP_pressure;BME280_temperature;BME280_humidity;BME280_pressure;Samples;Min_cycle;Max_cycle;Signal;HPM_P1;HPM_P2
2022/08/12 00:44:50;;;;;;;5.73;3.03;;;19.10;94.90;;;;;;5053349;28;20194;-86
2022/08/12 00:47:17;;;;;;;5.83;3.40;;;19.20;94.70;;;;;;5035930;28;20630;-86
2022/08/12 00:49:50;;;;;;;3.80;3.45;;;19.10;94.90;;;;;;5035635;28;20173;-86
2022/08/12 00:52:18;;;;;;;6.77;2.93;;;19.40;93.90;;;;;;5035474;28;20633;-86
2022/08/12 00:54:56;;;;;;;6.10;2.97;;;19.10;94.30;;;;;;5035387;28;20197;-86
2022/08/12 00:57:24;;;;;;;5.07;3.30;;;19.00;94.80;;;;;;5036187;28;20808;-86
2022/08/12 00:59:54;;;;;;;4.27;3.00;;;18.80;94.90;;;;;;5035343;28;20225;-86
2022/08/12 01:02:25;;;;;;;5.43;3.17;;;18.90;94.60;;;;;;5034618;28;20176;-86
2022/08/12 01:13:15;;;;;;;5.87;3.40;;;18.90;94.90;;;;;;5053349;28;20195;-87
2022/08/12 01:15:42;;;;;;;5.27;3.43;;;18.70;95.80;;;;;;5034891;28;20213;-86
2022/08/12 01:18:09;;;;;;;4.03;3.00;;;18.70;96.30;;;;;;5035879;28;20177;-86
2022/08/12 01:20:58;;;;;;;5.37;3.07;;;18.80;96.70;;;;;;5034762;28;20215;-86
2022/08/12 01:23:57;;;;;;;4.27;3.43;;;18.70;96.70;;;;;;5011257;28;20288;-86
2022/08/12 01:26:24;;;;;;;6.07;4.33;;;18.70;97.40;;;;;;5034768;28;20275;-86
2022/08/12 01:28:55;;;;;;;7.07;3.67;;;18.70;98.60;;;;;;5035521;28;20177;-87
2022/08/12 01:31:21;;;;;;;6.67;3.80;;;18.70;98.10;;;;;;5037035;28;20633;-86
2022/08/12 01:33:49;;;;;;;5.13;3.80;;;18.70;99.60;;;;;;5035489;28;20665;-86
2022/08/12 01:36:17;;;;;;;8.67;3.90;;;18.60;99.90;;;;;;5034558;28;20200;-86
2022/08/12 01:38:46;;;;;;;5.07;3.60;;;18.60;99.90;;;;;;5035159;28;20197;-86
2022/08/12 01:41:15;;;;;;;6.80;3.63;;;18.40;99.90;;;;;;5035435;28;20260;-86
2022/08/12 01:43:43;;;;;;;8.13;4.00;;;18.30;99.90;;;;;;5035239;28;20196;-86
2022/08/12 01:46:28;;;;;;;5.63;3.57;;;18.30;99.90;;;;;;5034656;28;20587;-86
2022/08/12 01:49:29;;;;;;;6.57;3.60;;;18.40;99.90;;;;;;5035689;28;20161;-86
2022/08/12 01:52:03;;;;;;;5.53;3.90;;;18.40;99.90;;;;;;4997708;28;20211;-86
2022/08/12 01:54:41;;;;;;;7.37;4.07;;;18.50;99.90;;;;;;5034455;28;20204;-86
2022/08/12 01:57:18;;;;;;;5.20;4.00;;;18.30;99.90;;;;;;5035716;28;20164;-86
2022/08/12 02:00:00;;;;;;;9.17;4.33;;;18.30;99.90;;;;;;5034463;28;20185;-86
2022/08/12 02:02:28;;;;;;;6.20;3.80;;;18.40;99.90;;;;;;5033904;28;20169;-86
2022/08/12 02:11:29;;;;;;;8.50;3.80;;;18.10;99.90;;;;;;5055819;28;20184;-86
2022/08/12 02:14:32;;;;;;;5.43;3.90;;;18.30;99.90;;;;;;5038287;28;20169;-86
2022/08/12 02:17:30;;;;;;;4.73;3.87;;;18.30;99.90;;;;;;5037478;28;20187;-86
2022/08/12 02:19:56;;;;;;;5.27;3.83;;;18.00;99.90;;;;;;5001163;28;20417;-86
2022/08/12 02:22:43;;;;;;;5.90;3.83;;;18.10;99.90;;;;;;5037682;28;20184;-86
2022/08/12 02:25:17;;;;;;;7.60;3.90;;;17.80;99.90;;;;;;5037998;28;20631;-86
2022/08/12 02:27:45;;;;;;;4.90;3.80;;;18.00;99.90;;;;;;5039645;28;20180;-86
2022/08/12 02:30:15;;;;;;;5.70;3.80;;;17.90;99.90;;;;;;5037982;28;20260;-86
2022/08/12 02:32:46;;;;;;;5.03;3.93;;;17.90;99.90;;;;;;5037604;28;20173;-86
2022/08/12 02:35:21;;;;;;;3.83;3.47;;;17.80;99.90;;;;;;5037756;28;20595;-86
2022/08/12 02:37:51;;;;;;;7.67;4.10;;;17.90;99.90;;;;;;5038426;28;20525;-87
2022/08/12 02:40:19;;;;;;;5.57;4.03;;;17.60;99.90;;;;;;5055575;28;20205;-86
2022/08/12 02:42:50;;;;;;;8.17;3.80;;;17.50;99.90;;;;;;5037783;28;20579;-86
2022/08/12 02:45:20;;;;;;;10.73;4.03;;;17.50;99.90;;;;;;5037719;28;20628;-87
2022/08/12 02:47:48;;;;;;;7.97;4.20;;;17.80;99.90;;;;;;5038512;28;20216;-85
2022/08/12 02:50:19;;;;;;;5.47;4.10;;;17.80;99.90;;;;;;5038069;28;20173;-86
2022/08/12 02:52:46;;;;;;;7.53;4.17;;;17.50;99.90;;;;;;5037409;28;20738;-86
2022/08/12 02:55:20;;;;;;;5.90;3.83;;;17.40;99.90;;;;;;5037396;28;20205;-86
2022/08/12 02:57:47;;;;;;;6.93;4.50;;;17.50;99.90;;;;;;5037961;28;20166;-87
2022/08/12 03:00:17;;;;;;;9.93;4.37;;;17.40;99.90;;;;;;5037503;28;20205;-86
2022/08/12 03:02:45;;;;;;;6.77;4.00;;;17.40;99.90;;;;;;5037349;28;20158;-86
2022/08/12 03:05:16;;;;;;;7.63;4.63;;;17.40;99.90;;;;;;5037684;28;20190;-86
2022/08/12 03:07:49;;;;;;;5.90;4.00;;;17.30;99.90;;;;;;5038325;28;20158;-86
2022/08/12 03:10:20;;;;;;;5.73;4.33;;;17.40;99.90;;;;;;5037473;28;20193;-86
2022/08/12 03:12:47;;;;;;;8.37;4.27;;;17.40;99.90;;;;;;5037309;28;20192;-86
2022/08/12 03:15:19;;;;;;;7.17;4.23;;;17.40;99.90;;;;;;5036912;28;20765;-86
2022/08/12 03:18:02;;;;;;;7.37;4.63;;;17.30;99.90;;;;;;5037731;28;20211;-87
2022/08/12 03:20:28;;;;;;;9.80;5.00;;;17.30;99.90;;;;;;5036602;28;20193;-86
2022/08/12 03:22:53;;;;;;;9.57;4.10;;;17.30;99.90;;;;;;5036301;28;20169;-86
2022/08/12 03:25:25;;;;;;;8.40;4.63;;;17.10;99.90;;;;;;5037120;28;20201;-86
2022/08/12 03:27:56;;;;;;;8.27;4.83;;;17.00;99.90;;;;;;5037826;28;20711;-86
2022/08/12 03:30:33;;;;;;;5.87;4.10;;;17.10;99.90;;;;;;5036942;28;20273;-86
2022/08/12 03:33:04;;;;;;;8.43;4.50;;;17.00;99.90;;;;;;5036485;28;20164;-87
2022/08/12 03:35:34;;;;;;;6.57;4.80;;;17.20;99.90;;;;;;5036653;28;20193;-86
2022/08/12 03:38:04;;;;;;;6.30;4.80;;;17.10;99.90;;;;;;5037113;28;20182;-86
2022/08/12 04:00:23;;;;;;;7.53;4.77;;;17.00;99.90;;;;;;5054369;28;20223;-87
2022/08/12 04:03:04;;;;;;;15.57;4.70;;;17.10;99.90;;;;;;5035715;28;20165;-86
2022/08/12 04:05:32;;;;;;;9.40;5.30;;;17.00;99.90;;;;;;5036052;28;20193;-87
2022/08/12 04:08:02;;;;;;;7.57;4.70;;;16.90;99.90;;;;;;5037009;28;20176;-86
2022/08/12 04:13:15;;;;;;;7.17;4.73;;;17.10;99.90;;;;;;5036018;28;20158;-86
2022/08/12 04:13:20;;;;;;;6.30;4.63;;;16.90;99.90;;;;;;5053398;28;20164;-87
2022/08/12 04:15:46;;;;;;;9.17;4.40;;;17.00;99.90;;;;;;5035689;28;20215;-86
2022/08/12 04:18:14;;;;;;;5.93;4.73;;;17.10;99.90;;;;;;5037401;28;20603;-86
2022/08/12 04:20:41;;;;;;;8.50;4.97;;;17.20;99.90;;;;;;5036020;28;20205;-87
2022/08/12 04:23:13;;;;;;;8.43;5.33;;;16.70;99.90;;;;;;5036524;28;20174;-86
2022/08/12 04:25:40;;;;;;;7.30;4.77;;;16.60;99.90;;;;;;5037313;28;20189;-86
2022/08/12 04:28:07;;;;;;;8.90;5.07;;;16.60;99.90;;;;;;5038887;28;20174;-87
2022/08/12 04:30:34;;;;;;;7.70;5.20;;;16.90;99.90;;;;;;5039494;28;20184;-86
2022/08/12 04:32:59;;;;;;;7.97;5.37;;;16.80;99.90;;;;;;5035774;28;20177;-86
2022/08/12 04:35:25;;;;;;;7.77;5.30;;;17.10;99.90;;;;;;5036196;28;20228;-86
2022/08/12 04:37:53;;;;;;;9.20;5.03;;;17.10;99.90;;;;;;5037441;28;20660;-87
2022/08/12 04:40:24;;;;;;;9.93;5.10;;;17.20;99.90;;;;;;5036874;28;20293;-87
2022/08/12 04:42:51;;;;;;;8.37;5.57;;;17.20;99.90;;;;;;5036550;28;20168;-86
2022/08/12 04:45:20;;;;;;;9.33;5.60;;;17.00;99.90;;;;;;5035948;28;20185;-87
2022/08/12 04:47:46;;;;;;;9.47;5.70;;;16.90;99.90;;;;;;5037950;28;20207;-87
2022/08/12 04:50:17;;;;;;;8.77;5.23;;;17.00;99.90;;;;;;5037010;28;20178;-86
2022/08/12 04:52:44;;;;;;;15.03;5.63;;;16.90;99.90;;;;;;5037413;28;20162;-86
2022/08/12 04:55:11;;;;;;;6.50;5.10;;;17.00;99.90;;;;;;5036721;28;20259;-86
2022/08/12 04:57:37;;;;;;;6.97;4.63;;;17.00;99.90;;;;;;5037413;28;20193;-87
2022/08/12 05:00:12;;;;;;;9.37;5.40;;;17.20;99.90;;;;;;5037621;28;20215;-86
2022/08/12 05:02:38;;;;;;;10.90;4.47;;;17.20;99.90;;;;;;5035525;28;20197;-86
2022/08/12 05:05:07;;;;;;;11.77;4.77;;;17.20;99.90;;;;;;5037039;28;20727;-86
2022/08/12 05:07:34;;;;;;;7.63;4.40;;;17.40;99.90;;;;;;5037655;28;20642;-86
2022/08/12 05:10:01;;;;;;;12.83;5.10;;;17.50;99.90;;;;;;5038785;28;20165;-86
2022/08/12 05:12:41;;;;;;;9.67;4.73;;;17.50;99.90;;;;;;5035559;28;20719;-87
2022/08/12 05:15:08;;;;;;;9.13;4.87;;;17.70;99.90;;;;;;5036925;28;20232;-87
2022/08/12 05:17:33;;;;;;;9.97;5.37;;;17.80;99.90;;;;;;5036729;28;20181;-86
2022/08/12 05:19:59;;;;;;;9.53;6.03;;;17.90;99.90;;;;;;5037374;28;20197;-86
2022/08/12 05:22:26;;;;;;;13.57;5.40;;;17.90;99.90;;;;;;5037277;28;20227;-86
2022/08/12 05:24:51;;;;;;;12.63;5.90;;;17.90;99.90;;;;;;5035970;28;20239;-87
2022/08/12 05:27:17;;;;;;;11.20;6.90;;;17.90;99.90;;;;;;5036103;28;20169;-86
2022/08/12 05:29:48;;;;;;;15.33;6.53;;;18.00;99.90;;;;;;5038333;28;20161;-86
2022/08/12 05:32:19;;;;;;;11.00;5.47;;;18.10;99.90;;;;;;5036149;28;20172;-87
2022/08/12 05:34:47;;;;;;;9.63;5.57;;;18.40;99.90;;;;;;5035951;28;20193;-86
2022/08/12 05:37:13;;;;;;;9.93;5.60;;;18.40;99.90;;;;;;5036220;28;20193;-86
2022/08/12 05:39:39;;;;;;;13.67;5.60;;;18.50;99.90;;;;;;5037405;28;20760;-86
2022/08/12 05:42:04;;;;;;;6.40;5.03;;;18.70;99.90;;;;;;5035278;28;20264;-87
2022/08/12 05:44:30;;;;;;;7.30;5.30;;;18.90;99.90;;;;;;5041433;28;20518;-86
2022/08/12 05:46:56;;;;;;;12.13;5.20;;;18.90;99.90;;;;;;5040028;28;20161;-87
2022/08/12 05:49:21;;;;;;;13.40;6.10;;;19.00;99.90;;;;;;5040804;28;20176;-87
2022/08/12 05:51:47;;;;;;;15.20;5.30;;;19.30;99.90;;;;;;5064589;28;20165;-86
2022/08/12 05:54:15;;;;;;;14.10;5.77;;;19.40;99.90;;;;;;5044194;28;20186;-86
2022/08/12 05:56:40;;;;;;;8.63;4.67;;;19.60;99.90;;;;;;5039674;28;20197;-86
2022/08/12 05:59:09;;;;;;;14.13;5.38;;;19.90;99.90;;;;;;5042155;28;20738;-86
2022/08/12 06:01:36;;;;;;;11.10;5.53;;;20.10;99.90;;;;;;5039715;28;20161;-86
2022/08/12 06:04:01;;;;;;;11.80;5.72;;;20.20;99.90;;;;;;5041037;28;20180;-86
2022/08/12 06:06:27;;;;;;;12.70;4.93;;;20.30;99.90;;;;;;5040011;28;20185;-86
2022/08/12 06:08:54;;;;;;;10.02;5.32;;;20.60;99.90;;;;;;5042187;28;20185;-86
2022/08/12 06:11:23;;;;;;;13.48;5.22;;;21.20;98.20;;;;;;5044046;28;20264;-84
2022/08/12 06:13:51;;;;;;;13.27;5.30;;;21.40;98.40;;;;;;5040392;28;20176;-83
2022/08/12 06:16:19;;;;;;;14.10;5.32;;;21.40;96.20;;;;;;5041577;28;20213;-84
2022/08/12 06:18:45;;;;;;;19.73;5.20;;;21.80;96.70;;;;;;5038681;28;20203;-84
2022/08/12 06:21:14;;;;;;;16.50;5.20;;;21.90;94.50;;;;;;5038306;28;20165;-83
2022/08/12 06:23:41;;;;;;;8.38;4.32;;;22.10;94.90;;;;;;5038113;28;20566;-83
2022/08/12 06:26:10;;;;;;;18.35;5.53;;;22.60;95.00;;;;;;5038158;28;20192;-84
2022/08/12 06:28:39;;;;;;;12.55;5.28;;;23.00;93.50;;;;;;5039028;28;20173;-84
2022/08/12 06:31:05;;;;;;;9.23;4.60;;;23.50;92.80;;;;;;5057044;28;20173;-82
2022/08/12 06:33:32;;;;;;;10.90;4.93;;;23.50;92.40;;;;;;5039645;28;20192;-83
2022/08/12 06:35:59;;;;;;;11.38;5.03;;;23.40;91.70;;;;;;5040693;28;20242;-82
2022/08/12 06:38:26;;;;;;;10.75;4.78;;;24.00;91.70;;;;;;5039902;28;20177;-83
2022/08/12 06:43:42;;;;;;;10.75;4.30;;;23.80;91.30;;;;;;5058567;28;20176;-82
2022/08/12 06:46:09;;;;;;;8.30;4.47;;;24.20;90.90;;;;;;5040848;28;20683;-82
2022/08/12 06:48:36;;;;;;;10.48;4.78;;;24.80;90.30;;;;;;5040017;28;20169;-82
2022/08/12 06:51:02;;;;;;;9.57;4.38;;;24.80;90.30;;;;;;5039638;28;20233;-83
2022/08/12 06:53:31;;;;;;;11.35;4.47;;;25.00;90.60;;;;;;5041475;28;20633;-80
2022/08/12 06:56:00;;;;;;;126.40;9.80;;;25.30;89.00;;;;;;5040220;28;20270;-81
2022/08/12 06:58:27;;;;;;;14.10;4.68;;;25.00;87.80;;;;;;5041161;28;20196;-81
2022/08/12 07:00:54;;;;;;;21.40;5.00;;;24.90;88.80;;;;;;5041603;28;20169;-81
2022/08/12 07:03:26;;;;;;;7.88;4.50;;;25.10;87.90;;;;;;5038614;28;20258;-82
2022/08/12 07:05:52;;;;;;;12.75;4.13;;;25.10;85.70;;;;;;5040178;28;20220;-82
2022/08/12 07:08:19;;;;;;;15.98;4.38;;;25.60;86.00;;;;;;5039143;28;20576;-83
2022/08/12 07:10:52;;;;;;;10.45;4.50;;;26.00;86.60;;;;;;5039794;28;20177;-83
2022/08/12 07:13:19;;;;;;;11.13;4.05;;;26.10;84.30;;;;;;5040179;28;20193;-83
2022/08/12 07:15:45;;;;;;;7.68;3.80;;;26.50;84.00;;;;;;5038236;28;20299;-84
2022/08/12 07:18:18;;;;;;;12.48;3.92;;;27.20;83.20;;;;;;5038067;28;20177;-83
2022/08/12 07:20:46;;;;;;;10.18;4.65;;;27.10;83.30;;;;;;5038811;28;20284;-82
2022/08/12 07:23:13;;;;;;;13.27;4.18;;;27.00;82.30;;;;;;5036236;28;20173;-83
2022/08/12 07:25:39;;;;;;;6.07;3.97;;;26.80;83.80;;;;;;5035946;28;20547;-81
2022/08/12 07:28:17;;;;;;;15.77;4.05;;;27.50;81.80;;;;;;5037137;28;20203;-84
2022/08/12 07:30:45;;;;;;;14.85;3.65;;;28.00;81.80;;;;;;5036904;28;20204;-84
2022/08/12 07:33:12;;;;;;;9.90;3.80;;;27.70;80.30;;;;;;5036881;28;20780;-83
2022/08/12 07:35:46;;;;;;;8.45;3.70;;;28.00;80.30;;;;;;5037199;28;20251;-84
2022/08/12 07:38:42;;;;;;;8.60;3.13;;;28.60;79.60;;;;;;5036958;28;20626;-83
2022/08/12 07:41:11;;;;;;;8.57;3.53;;;28.60;79.50;;;;;;5035360;28;20208;-83
2022/08/12 07:43:40;;;;;;;10.40;3.42;;;28.50;77.70;;;;;;5037392;28;20613;-84
2022/08/12 07:46:07;;;;;;;12.35;3.67;;;29.10;77.90;;;;;;5036576;28;20197;-83
2022/08/12 07:48:55;;;;;;;9.05;3.33;;;29.20;77.80;;;;;;5038369;28;20161;-84
2022/08/12 07:51:23;;;;;;;9.15;3.20;;;28.30;77.30;;;;;;5036941;28;20161;-84
2022/08/12 07:53:49;;;;;;;8.95;3.45;;;29.00;78.20;;;;;;5037495;28;20192;-82
2022/08/12 07:56:17;;;;;;;7.20;2.90;;;28.40;77.20;;;;;;5036450;28;20201;-84
2022/08/12 07:58:42;;;;;;;12.98;3.53;;;29.50;76.30;;;;;;5037464;28;20173;-84
2022/08/12 08:01:10;;;;;;;12.40;3.33;;;29.00;77.10;;;;;;5036689;28;20659;-84
2022/08/12 08:06:30;;;;;;;8.75;3.05;;;30.10;76.60;;;;;;5055744;28;20196;-83
2022/08/12 08:09:01;;;;;;;17.00;3.22;;;30.00;75.50;;;;;;5037107;28;20182;-83
2022/08/12 08:14:12;;;;;;;9.80;2.90;;;30.30;73.70;;;;;;5055147;28;20196;-81
2022/08/12 08:16:39;;;;;;;11.40;3.28;;;30.70;73.70;;;;;;5035803;28;20208;-81
2022/08/12 08:19:18;;;;;;;8.18;2.90;;;30.40;73.30;;;;;;5036213;28;20302;-81
2022/08/12 08:21:44;;;;;;;15.77;3.10;;;30.80;73.10;;;;;;5035997;28;20169;-81
2022/08/12 08:24:15;;;;;;;10.57;3.10;;;30.40;73.00;;;;;;5035895;28;20171;-82
2022/08/12 08:26:52;;;;;;;4.82;2.80;;;30.80;71.90;;;;;;5036037;28;20621;-82
2022/08/12 08:29:23;;;;;;;5.28;2.80;;;30.70;73.00;;;;;;5035737;28;20170;-82
2022/08/12 08:31:53;;;;;;;6.72;2.20;;;30.50;71.00;;;;;;5036016;28;20229;-82
2022/08/12 08:34:20;;;;;;;4.82;2.75;;;31.10;72.30;;;;;;5037932;28;20190;-83
2022/08/12 08:36:46;;;;;;;6.25;2.75;;;31.10;71.00;;;;;;5048990;28;20179;-82
2022/08/12 08:39:15;;;;;;;9.55;2.90;;;31.10;71.60;;;;;;5056660;28;20203;-82
2022/08/12 08:44:26;;;;;;;7.22;2.80;;;31.70;72.00;;;;;;5062321;28;20172;-82
2022/08/12 08:46:54;;;;;;;7.10;2.33;;;31.50;69.40;;;;;;5037153;28;20169;-81
2022/08/12 08:49:21;;;;;;;7.43;2.65;;;31.50;70.60;;;;;;5038203;28;20196;-83
2022/08/12 08:51:47;;;;;;;10.60;3.05;;;31.50;69.00;;;;;;5038966;28;20170;-82
2022/08/12 08:54:14;;;;;;;5.90;2.47;;;31.40;69.20;;;;;;5039606;28;20181;-82
2022/08/12 08:56:48;;;;;;;11.80;2.63;;;31.20;67.10;;;;;;5036232;28;20201;-83
2022/08/12 08:59:15;;;;;;;9.95;2.45;;;31.10;67.00;;;;;;5031061;28;20200;-82
2022/08/12 09:01:42;;;;;;;8.35;2.40;;;31.70;68.60;;;;;;5065397;28;20249;-82
2022/08/12 09:04:10;;;;;;;7.47;2.15;;;31.60;67.20;;;;;;5052519;28;20256;-81
2022/08/12 09:06:38;;;;;;;5.38;2.35;;;31.60;66.00;;;;;;5039679;28;20217;-83
2022/08/12 09:09:06;;;;;;;6.85;2.67;;;31.80;66.30;;;;;;5041286;28;20207;-82
2022/08/12 09:14:16;;;;;;;9.18;2.40;;;32.10;65.10;;;;;;5059862;28;20239;-82
2022/08/12 09:16:42;;;;;;;3.15;2.05;;;32.40;64.30;;;;;;5046236;28;20213;-81
2022/08/12 09:19:09;;;;;;;2.28;2.05;;;31.40;64.30;;;;;;5056498;28;20230;-81
2022/08/12 09:21:35;;;;;;;4.28;2.35;;;31.20;64.00;;;;;;5042402;28;20170;-81
2022/08/12 09:24:01;;;;;;;4.03;2.22;;;32.00;64.10;;;;;;5037329;28;20174;-81
2022/08/12 09:26:28;;;;;;;5.35;2.13;;;32.40;62.80;;;;;;5037065;28;20189;-81
2022/08/12 09:28:55;;;;;;;4.07;2.20;;;31.90;62.90;;;;;;5041432;28;20175;-80
2022/08/12 09:31:21;;;;;;;5.65;2.00;;;32.20;61.60;;;;;;5057055;28;20257;-81
2022/08/12 09:33:49;;;;;;;2.55;1.95;;;32.30;63.00;;;;;;5057047;28;20177;-81
2022/08/12 09:36:15;;;;;;;4.68;2.20;;;32.20;62.50;;;;;;5041906;28;20193;-81
2022/08/12 09:38:42;;;;;;;6.38;2.20;;;31.90;62.00;;;;;;5037472;28;20177;-81
2022/08/12 09:41:08;;;;;;;6.30;2.00;;;32.00;61.70;;;;;;5036844;28;20173;-81
2022/08/12 09:46:18;;;;;;;8.93;2.08;;;31.70;59.70;;;;;;5056975;28;20280;-81
2022/08/12 09:48:44;;;;;;;7.47;2.05;;;32.60;61.00;;;;;;5038753;28;20200;-80
2022/08/12 09:51:11;;;;;;;4.32;1.90;;;32.30;61.20;;;;;;5037275;28;20181;-82
2022/08/12 09:53:38;;;;;;;4.20;2.00;;;31.60;58.80;;;;;;5037168;28;20560;-82
2022/08/12 09:56:05;;;;;;;5.55;1.70;;;32.30;60.70;;;;;;5038331;28;20189;-82
2022/08/12 09:58:31;;;;;;;2.67;1.65;;;32.70;60.30;;;;;;5041370;28;20204;-82
2022/08/12 10:01:03;;;;;;;3.33;1.88;;;33.20;58.60;;;;;;5041598;28;20169;-82
2022/08/12 10:03:35;;;;;;;1.95;1.85;;;31.80;58.70;;;;;;5034408;28;20165;-82
2022/08/12 10:06:05;;;;;;;5.18;2.33;;;32.40;59.40;;;;;;5034290;28;20756;-82
2022/08/12 10:08:33;;;;;;;9.27;2.20;;;32.30;60.10;;;;;;5035191;28;20169;-81
2022/08/12 10:13:47;;;;;;;4.75;1.70;;;33.70;59.00;;;;;;5072700;28;20175;-82
2022/08/12 10:16:21;;;;;;;2.28;1.85;;;32.50;57.20;;;;;;5053410;28;20580;-82
2022/08/12 10:18:50;;;;;;;7.97;1.88;;;32.60;57.60;;;;;;5053793;28;20624;-82
2022/08/12 10:21:22;;;;;;;7.63;2.35;;;33.30;58.20;;;;;;5039694;28;20742;-82
2022/08/12 10:23:50;;;;;;;6.85;2.15;;;33.80;58.60;;;;;;5034805;28;20184;-82
2022/08/12 10:31:52;;;;;;;1.90;1.80;;;32.30;58.40;;;;;;5055041;28;20161;-81
2022/08/12 10:34:21;;;;;;;3.22;1.70;;;32.70;58.00;;;;;;5037237;28;20260;-82
2022/08/12 10:36:49;;;;;;;3.40;1.77;;;33.20;58.80;;;;;;5037657;28;20173;-81
2022/08/12 10:39:17;;;;;;;7.70;2.08;;;32.60;58.40;;;;;;5039026;28;20666;-81
2022/08/12 10:44:29;;;;;;;5.13;2.00;;;32.50;58.30;;;;;;5056585;28;20769;-82
2022/08/12 10:46:55;;;;;;;9.00;2.05;;;32.60;57.70;;;;;;5038531;28;20184;-84
2022/08/12 10:49:30;;;;;;;4.65;2.10;;;33.00;57.80;;;;;;5038404;28;20268;-83
2022/08/12 10:51:56;;;;;;;7.50;2.05;;;33.00;57.50;;;;;;5038230;28;20207;-83
2022/08/12 10:54:24;;;;;;;3.47;2.03;;;32.20;57.50;;;;;;5043356;28;20172;-84
2022/08/12 10:56:50;;;;;;;3.45;1.90;;;32.50;57.80;;;;;;5049942;28;20168;-84
2022/08/12 10:59:16;;;;;;;12.80;2.40;;;32.60;57.80;;;;;;5041688;28;20247;-83
2022/08/12 11:01:42;;;;;;;8.00;2.13;;;32.80;58.10;;;;;;5036173;28;20188;-83
2022/08/12 11:04:12;;;;;;;6.45;1.92;;;34.10;56.00;;;;;;5055165;28;20169;-83
2022/08/12 11:06:43;;;;;;;10.25;2.03;;;34.30;56.70;;;;;;5058075;28;20218;-83
2022/08/12 11:09:10;;;;;;;5.25;2.17;;;35.80;56.60;;;;;;5058286;28;20176;-80
2022/08/12 11:11:35;;;;;;;7.68;2.22;;;36.70;55.70;;;;;;5047812;28;20169;-80
2022/08/12 11:14:01;;;;;;;4.40;1.90;;;35.40;57.10;;;;;;5038920;28;20181;-81
2022/08/12 11:16:28;;;;;;;5.40;1.80;;;34.10;57.10;;;;;;5038907;28;20213;-80
2022/08/12 11:18:53;;;;;;;9.18;2.17;;;33.00;58.30;;;;;;5039127;28;20197;-81
2022/08/12 11:21:19;;;;;;;7.32;2.33;;;32.60;57.60;;;;;;5052463;28;20165;-81
2022/08/12 11:23:45;;;;;;;62.28;4.22;;;33.00;58.20;;;;;;5058873;28;20169;-81
2022/08/12 11:26:10;;;;;;;14.52;3.53;;;33.10;59.20;;;;;;5058448;28;20188;-81
2022/08/12 11:28:36;;;;;;;2.45;2.00;;;33.90;57.50;;;;;;5056722;28;20212;-82
2022/08/12 11:31:03;;;;;;;6.90;2.30;;;33.30;56.70;;;;;;5042797;28;20352;-82
2022/08/12 11:33:29;;;;;;;7.15;2.00;;;33.50;57.40;;;;;;5058336;28;20165;-80
2022/08/12 11:36:04;;;;;;;3.72;1.85;;;33.40;57.80;;;;;;5054959;28;20193;-82
2022/08/12 11:38:30;;;;;;;13.65;2.63;;;32.70;58.30;;;;;;5038418;28;20641;-83
2022/08/12 11:40:56;;;;;;;6.95;2.20;;;32.10;58.50;;;;;;5038830;28;20220;-81
2022/08/12 11:43:21;;;;;;;15.95;2.70;;;32.30;58.70;;;;;;5036716;28;20738;-81
2022/08/12 11:45:47;;;;;;;4.93;2.20;;;32.70;57.00;;;;;;5055205;28;20251;-81
2022/08/12 11:48:13;;;;;;;5.50;2.30;;;33.50;56.80;;;;;;5037721;28;20584;-82
2022/08/12 11:50:42;;;;;;;9.82;2.50;;;33.30;56.90;;;;;;5036878;28;20184;-81
2022/08/12 11:53:07;;;;;;;6.53;2.30;;;35.00;57.20;;;;;;5036901;28;20170;-81
2022/08/12 11:55:34;;;;;;;6.32;2.30;;;34.90;55.80;;;;;;5036722;28;20196;-80
2022/08/12 11:58:00;;;;;;;6.80;2.30;;;33.40;56.00;;;;;;5037419;28;20272;-81
2022/08/12 12:00:26;;;;;;;2.63;2.10;;;32.50;57.50;;;;;;5037333;28;20291;-79
2022/08/12 12:02:51;;;;;;;5.35;2.10;;;32.90;56.60;;;;;;5039136;28;20174;-79
2022/08/12 12:05:18;;;;;;;11.02;2.20;;;32.70;56.90;;;;;;5037137;28;20200;-79
2022/08/12 12:07:45;;;;;;;2.53;2.33;;;33.10;57.80;;;;;;5037534;28;20634;-80
2022/08/12 12:10:13;;;;;;;16.40;2.30;;;32.90;57.30;;;;;;5055174;28;20174;-80
2022/08/12 12:12:40;;;;;;;3.08;2.28;;;32.20;57.30;;;;;;5037306;28;20177;-80
2022/08/12 12:15:06;;;;;;;9.18;2.20;;;32.30;57.90;;;;;;5036700;28;20636;-80
2022/08/12 12:17:40;;;;;;;18.63;3.13;;;32.50;57.30;;;;;;5036821;28;20174;-81
2022/08/12 12:20:08;;;;;;;13.13;2.83;;;32.50;58.40;;;;;;5035546;28;20197;-81
2022/08/12 12:22:36;;;;;;;4.80;2.22;;;32.40;58.30;;;;;;5036991;28;20203;-82
2022/08/12 12:25:02;;;;;;;10.93;2.50;;;32.50;59.30;;;;;;5037275;28;20272;-83
2022/08/12 12:27:28;;;;;;;4.15;2.25;;;32.40;58.70;;;;;;5054714;28;20268;-83
2022/08/12 12:29:57;;;;;;;3.70;2.40;;;32.20;58.10;;;;;;5037562;28;20213;-83
2022/08/12 12:32:22;;;;;;;5.07;2.42;;;32.00;58.90;;;;;;5036833;28;20201;-83
2022/08/12 12:34:48;;;;;;;12.05;2.63;;;32.10;58.50;;;;;;5028457;22;20250;-88
2022/08/12 12:37:14;;;;;;;8.70;2.20;;;32.40;58.00;;;;;;5008444;28;20177;-91
2022/08/12 12:39:39;;;;;;;2.35;2.15;;;32.40;57.10;;;;;;5010524;28;20201;-86
2022/08/12 12:42:05;;;;;;;17.52;2.83;;;31.30;56.00;;;;;;5012810;28;20191;-85
2022/08/12 12:44:31;;;;;;;11.18;2.25;;;31.60;58.90;;;;;;5011371;28;20266;-87
2022/08/12 12:46:57;;;;;;;5.70;2.25;;;31.50;58.80;;;;;;5012011;28;20297;-84
2022/08/12 12:49:23;;;;;;;9.25;2.40;;;31.20;58.60;;;;;;5012313;28;20772;-83
2022/08/12 12:51:49;;;;;;;6.78;2.30;;;31.40;59.90;;;;;;5011707;28;20711;-84
2022/08/12 12:54:14;;;;;;;7.45;2.10;;;31.30;58.50;;;;;;5012514;28;20547;-84
2022/08/12 12:56:40;;;;;;;9.57;2.45;;;31.60;58.60;;;;;;5014058;28;20197;-86
2022/08/12 12:59:07;;;;;;;7.25;2.38;;;31.30;58.90;;;;;;5014347;28;20218;-85
2022/08/12 13:01:36;;;;;;;4.68;2.00;;;31.40;59.10;;;;;;5013542;28;20214;-85
2022/08/12 13:04:04;;;;;;;5.38;2.33;;;31.20;58.60;;;;;;5013496;28;20170;-84
2022/08/12 13:06:30;;;;;;;9.30;2.35;;;31.20;59.20;;;;;;5013821;28;20173;-85
2022/08/12 13:08:56;;;;;;;14.55;2.75;;;31.10;58.10;;;;;;5013953;28;20599;-84
2022/08/12 13:13:49;;;;;;;9.13;2.40;;;31.20;58.80;;;;;;5043639;22;20234;-82
2022/08/12 13:16:21;;;;;;;7.28;2.30;;;31.00;58.70;;;;;;5052630;28;20472;-82
2022/08/12 13:18:50;;;;;;;8.05;2.38;;;30.60;58.90;;;;;;5055034;28;20220;-82
2022/08/12 13:21:17;;;;;;;5.35;2.25;;;30.80;58.50;;;;;;5053952;28;20659;-81
2022/08/12 13:23:44;;;;;;;3.28;2.20;;;31.00;58.70;;;;;;5054022;28;20177;-83
2022/08/12 13:26:11;;;;;;;5.45;2.17;;;31.00;59.10;;;;;;5053235;28;20565;-81
2022/08/12 13:28:40;;;;;;;12.82;2.50;;;30.90;59.10;;;;;;5053996;28;20585;-82
2022/08/12 13:31:06;;;;;;;3.90;2.08;;;31.00;60.60;;;;;;5033742;28;20744;-80
2022/08/12 13:33:33;;;;;;;5.03;2.30;;;30.90;58.70;;;;;;5033167;28;20710;-81
2022/08/12 13:36:00;;;;;;;3.45;2.30;;;30.90;58.30;;;;;;5033183;28;20244;-83
2022/08/12 13:38:49;;;;;;;18.30;2.70;;;31.00;59.20;;;;;;5033486;28;20576;-82
2022/08/12 13:41:31;;;;;;;12.10;2.40;;;30.90;59.40;;;;;;5012627;28;20182;-81
2022/08/12 13:44:06;;;;;;;9.45;2.45;;;31.30;60.10;;;;;;5012928;28;20173;-81
2022/08/12 13:46:31;;;;;;;2.92;2.30;;;31.00;60.40;;;;;;5027072;28;20250;-83
2022/08/12 13:48:57;;;;;;;2.58;2.28;;;31.20;58.20;;;;;;5052904;28;20593;-82
2022/08/12 13:51:23;;;;;;;7.50;2.45;;;31.10;58.50;;;;;;5052455;28;20172;-81
2022/08/12 13:53:50;;;;;;;3.97;2.00;;;30.80;57.00;;;;;;5052080;28;20201;-82
2022/08/12 13:56:16;;;;;;;14.45;2.08;;;30.80;57.10;;;;;;5052073;28;20201;-82
2022/08/12 13:58:47;;;;;;;3.63;2.00;;;30.80;56.20;;;;;;5052743;28;20169;-81
2022/08/12 14:01:19;;;;;;;3.60;1.90;;;30.60;56.50;;;;;;5052659;28;20206;-81
2022/08/12 14:03:45;;;;;;;3.92;1.92;;;30.50;56.10;;;;;;5052364;28;20170;-81
2022/08/12 14:06:11;;;;;;;6.70;2.08;;;30.80;56.60;;;;;;5055814;28;20677;-81
2022/08/12 14:08:37;;;;;;;7.07;2.20;;;30.80;57.40;;;;;;5056643;28;20173;-82
2022/08/12 14:11:03;;;;;;;22.52;2.95;;;30.90;58.30;;;;;;5056185;28;20238;-84
2022/08/12 14:13:30;;;;;;;4.82;2.20;;;30.70;57.40;;;;;;5056775;28;20189;-83
2022/08/12 14:16:01;;;;;;;10.15;2.28;;;30.50;57.10;;;;;;5056232;28;20201;-81
2022/08/12 14:18:31;;;;;;;3.90;2.00;;;30.60;58.70;;;;;;5056040;28;20725;-82
2022/08/12 14:21:00;;;;;;;7.70;2.30;;;30.60;58.30;;;;;;5055960;28;20563;-81
2022/08/12 14:23:31;;;;;;;7.53;2.25;;;30.60;57.40;;;;;;5057134;28;20543;-81
2022/08/12 14:25:59;;;;;;;5.68;2.42;;;30.50;58.10;;;;;;5057107;28;20193;-81
2022/08/12 14:28:26;;;;;;;14.07;2.30;;;30.50;58.00;;;;;;5057214;28;20173;-81
2022/08/12 14:30:57;;;;;;;11.88;2.28;;;30.50;57.40;;;;;;5056718;28;20169;-81
2022/08/12 14:33:47;;;;;;;45.42;4.13;;;30.20;58.00;;;;;;5057345;28;20236;-81
2022/08/12 14:36:18;;;;;;;7.88;2.60;;;30.30;58.40;;;;;;5042782;28;20201;-81
2022/08/12 14:38:44;;;;;;;2.55;2.35;;;30.30;58.10;;;;;;5056335;28;20284;-81
2022/08/12 14:41:11;;;;;;;7.50;2.30;;;30.30;57.60;;;;;;5056445;28;20193;-81